London Heathrow Airport

EGLL · Inghilterra, Regno Unito

Storia di METAR EGLL · Aeroporto di Londra-Heathrow

Di seguito sono riportati i METAR degli ultimi giorni. Seleziona un anno per sfogliare i METAR più vecchi, dall'anno 2007 in poi.

27 maggio 2024

Tempo Codice Tempo meteorologico Temp. Vista Base nuvolosa Vento METAR/SPECI
12:20
V
16 °C 10 km+ - 240° 240° 12 kt METAR EGLL 271120Z AUTO 24012KT 200V270 9999 SCT041 16/08 Q1015
11:50
V
15 °C 10 km+ - 250° 250° 12 kt METAR EGLL 271050Z AUTO 25012KT 9999 SCT039/// //////TCU 15/06 Q1015 TEMPO SHRA
11:20
V
15 °C 10 km+ - 240° 240° 11 kt METAR EGLL 271020Z AUTO 24011KT 200V280 9999 SCT040 15/06 Q1015
10:50
V
16 °C 10 km+ - 250° 250° 12 kt METAR EGLL 270950Z AUTO 25012KT 200V280 9999 FEW041 16/06 Q1015 TEMPO SHRA
10:20
V
16 °C 10 km+ 4.400 ft 240° 240° 13 kt METAR EGLL 270920Z AUTO 24013KT 9999 SCT037 BKN044 16/06 Q1015
09:50
V
15 °C 10 km+ 4.300 ft 240° 240° 14 kt METAR EGLL 270850Z AUTO 24014KT 210V270 9999 SCT033 BKN043 15/06 Q1015 NOSIG
09:20
V
15 °C 10 km+ - 250° 250° 11 kt METAR EGLL 270820Z AUTO 25011KT 9999 SCT032 15/07 Q1015 NOSIG
08:50
V
14 °C 10 km+ - 240° 240° 11 kt METAR EGLL 270750Z AUTO 24011KT 9999 FEW031 14/07 Q1015 NOSIG
08:20
V
14 °C 10 km+ - 250° 250° 11 kt METAR EGLL 270720Z AUTO 25011KT 9999 NCD 14/07 Q1015
07:50
V
13 °C 10 km+ - 250° 250° 9 kt METAR EGLL 270650Z AUTO 25009KT 9999 NCD 13/08 Q1015 NOSIG
07:20
V
12 °C 10 km+ - 240° 240° 10 kt METAR EGLL 270620Z AUTO 24010KT 9999 NCD 12/08 Q1015 NOSIG
06:50
V
11 °C 10 km+ - 230° 230° 7 kt METAR EGLL 270550Z AUTO 23007KT 9999 NCD 11/08 Q1015
06:20
V
11 °C 10 km+ - 220° 220° 7 kt METAR EGLL 270520Z AUTO 22007KT 190V270 9999 NCD 11/08 Q1015
05:50
V
11 °C 10 km+ - 230° 230° 8 kt METAR EGLL 270450Z AUTO 23008KT 9999 NCD 11/08 Q1015
05:20
V
11 °C 10 km+ - 210° 210° 6 kt METAR EGLL 270420Z AUTO 21006KT 9999 NCD 11/08 Q1014
04:50
V
11 °C 10 km+ - 220° 220° 7 kt METAR EGLL 270350Z AUTO 22007KT 200V260 9999 NCD 11/08 Q1014
04:20
V
12 °C 10 km+ - 230° 230° 7 kt METAR EGLL 270320Z AUTO 23007KT 9999 NCD 12/09 Q1014 NOSIG
03:50
V
11 °C 10 km+ - 230° 230° 6 kt METAR EGLL 270250Z AUTO 23006KT 9999 NCD 11/09 Q1014
03:20
V
12 °C 10 km+ - 220° 220° 7 kt METAR EGLL 270220Z AUTO 22007KT 9999 NCD 12/10 Q1014 NOSIG
02:50
V
12 °C 10 km+ - 220° 220° 7 kt METAR EGLL 270150Z AUTO 22007KT 9999 NCD 12/10 Q1014 NOSIG
02:20
V
12 °C 10 km+ - 210° 210° 7 kt METAR EGLL 270120Z AUTO 21007KT 9999 FEW044 12/10 Q1014
01:50
V
12 °C 10 km+ - 220° 220° 7 kt METAR EGLL 270050Z AUTO 22007KT 9999 NCD 12/10 Q1014 NOSIG
01:20
V
12 °C 10 km+ 4.700 ft 230° 230° 8 kt METAR EGLL 270020Z AUTO 23008KT 9999 BKN047 12/09 Q1014 NOSIG
00:50
V
13 °C 10 km+ 4.600 ft 240° 240° 9 kt METAR EGLL 262350Z AUTO 24009KT 9999 FEW038 BKN046 13/09 Q1014 NOSIG
00:20
V
13 °C 10 km+ - 230° 230° 10 kt METAR EGLL 262320Z 23010KT 9999 FEW030 13/10 Q1014 NOSIG

26 maggio 2024

Tempo Codice Tempo meteorologico Temp. Vista Base nuvolosa Vento METAR/SPECI
23:50
V
13 °C 10 km+ - 230° 230° 8 kt METAR EGLL 262250Z 23008KT 9999 FEW026 13/10 Q1014
23:20
V
13 °C 10 km+ - 240° 240° 8 kt METAR EGLL 262220Z AUTO 24008KT 9999 NCD 13/10 Q1014
22:50
V
13 °C 10 km+ - 220° 220° 9 kt METAR EGLL 262150Z AUTO 22009KT 190V250 9999 FEW022 13/11 Q1013
22:20
V
14 °C 10 km+ - 220° 220° 9 kt METAR EGLL 262120Z AUTO 22009KT 9999 SCT024 14/11 Q1013
21:50
V
14 °C 10 km+ - 220° 220° 7 kt METAR EGLL 262050Z AUTO 22007KT 190V250 9999 NCD 14/11 Q1013
21:20
V
15 °C 10 km+ - 230° 230° 11 kt METAR EGLL 262020Z AUTO 23011KT 9999 NCD 15/09 Q1013
20:50
V
15 °C 10 km+ - 240° 240° 10 kt METAR EGLL 261950Z AUTO 24010KT 9999 NCD 15/10 Q1013
20:20
V
15 °C 10 km+ - 230° 230° 13 kt METAR EGLL 261920Z AUTO 23013KT 9999 NCD 15/10 Q1012
19:50
V
15 °C 10 km+ - 230° 230° 12 kt METAR EGLL 261850Z AUTO 23012KT 9999 NCD 15/11 Q1012 TEMPO SHRA
19:20
V
15 °C 10 km+ - 230° 230° 12 kt METAR EGLL 261820Z AUTO 23012KT 9999 //////TCU 15/11 Q1012
18:50
V
15 °C 10 km+ - 240° 240° 13 kt METAR EGLL 261750Z AUTO 24013KT 9999 -RA FEW028/// SCT047/// //////CB 15/11 Q1012 RERA TEMPO SHRA
18:20
V
16 °C 10 km+ - 250° 250° 13 kt METAR EGLL 261720Z AUTO 25013KT 9999 FEW032/// SCT039/// //////CB 16/10 Q1012 TEMPO 4000 SHRA
17:50
V
16 °C 10 km+ - 270° 270° 13 kt METAR EGLL 261650Z AUTO 27013KT 9999 SCT040 16/10 Q1012 TEMPO SHRA
17:20
V
16 °C 10 km+ 3.500 ft 270° 270° 14 kt METAR EGLL 261620Z AUTO 27014KT 9999 BKN035 BKN042 BKN049 16/09 Q1012
16:50
V
19 °C 10 km+ - 210° 210° 16 kt METAR EGLL 261550Z AUTO 21016KT 180V240 9999 SCT040/// SCT046/// //////CB 19/09 Q1011 TEMPO SHRA
16:20
V
19 °C 10 km+ - 220° 220° 16 kt METAR EGLL 261520Z AUTO 22016KT 9999 SCT039/// //////CB 19/09 Q1011
15:50
V
19 °C 10 km+ 3.700 ft 230° 230° 17 kt METAR EGLL 261450Z AUTO 23017KT 9999 BKN037/// //////CB 19/10 Q1011
15:20
V
18 °C 10 km+ - 200° 200° 13 kt METAR EGLL 261420Z AUTO 20013KT 170V240 9999 FEW033/// SCT040/// //////CB 18/11 Q1011 NOSIG
14:50
V
18 °C 10 km+ 4.300 ft 240° 240° 10 kt METAR EGLL 261350Z AUTO 24010KT 9999 SCT035/// BKN043/// //////CB 18/10 Q1011 TEMPO SHRA
14:20
V
17 °C 10 km+ 4.500 ft 240° 240° 14 kt METAR EGLL 261320Z AUTO 24014KT 9999 -RA BKN045/// //////CB 17/11 Q1011
13:50
V
18 °C 10 km+ - 230° 230° 16 kt METAR EGLL 261250Z AUTO 23016KT 9999 SCT038/// //////CB 18/10 Q1011
13:20
V
19 °C 10 km+ - 210° 210° 13 kt METAR EGLL 261220Z AUTO 21013KT 9999 FEW038 19/10 Q1011 TEMPO SHRA
12:50
V
18 °C 10 km+ 4.500 ft 220° 220° 12 kt METAR EGLL 261150Z AUTO 22012KT 9999 SCT034 BKN045 18/10 Q1011 TEMPO SHRA
12:20
V
18 °C 10 km+ - 220° 220° 11 kt METAR EGLL 261120Z AUTO 22011KT 180V250 9999 FEW029/// SCT034/// //////CB 18/11 Q1011 NOSIG
11:50
V
18 °C 10 km+ - 220° 220° 12 kt METAR EGLL 261050Z AUTO 22012KT 190V260 9999 SCT028/// //////CB 18/11 Q1011
11:20
M
18 °C 10 km+ 2.700 ft 210° 210° 13 - 23 kt METAR EGLL 261020Z AUTO 21013G23KT 170V240 9999 -RA BKN027/// BKN035/// //////CB 18/11 Q1011 NOSIG
10:50
V
17 °C 10 km+ - 210° 210° 11 kt METAR EGLL 260950Z AUTO 21011KT 9999 FEW021 SCT048 17/11 Q1011
10:20
M
17 °C 10 km+ 1.400 ft Var Var 9 kt METAR EGLL 260920Z AUTO VRB09KT 9999 BKN014 17/12 Q1011
09:50
M
16 °C 10 km+ 1.200 ft 190° 190° 11 kt METAR EGLL 260850Z AUTO 19011KT 9999 BKN012 BKN018 16/13 Q1011
09:20
M
15 °C 10 km+ 1.800 ft 180° 180° 9 kt METAR EGLL 260820Z AUTO 18009KT 140V210 9999 SCT011 BKN018 OVC027 15/13 Q1011
08:50
M
15 °C 10 km+ 1.300 ft 170° 170° 8 kt METAR EGLL 260750Z AUTO 17008KT 100V210 9999 SCT009 BKN013 BKN026 15/12 Q1011
08:20
M
14 °C 10 km+ 1.700 ft 160° 160° 7 kt METAR EGLL 260720Z AUTO 16007KT 9999 SCT009 BKN017 BKN036 14/12 Q1011 NOSIG
07:50
M
14 °C 10 km+ 2.100 ft 150° 150° 6 kt METAR EGLL 260650Z AUTO 15006KT 9999 SCT009 BKN021 BKN033 14/12 Q1011 NOSIG
07:20
M
13 °C 10 km+ 2.700 ft 130° 130° 6 kt METAR EGLL 260620Z AUTO 13006KT 9999 FEW009/// SCT019/// BKN027/// //////TCU 13/12 Q1011
06:50
M
13 °C 10 km+ 1.600 ft 120° 120° 6 kt METAR EGLL 260550Z 12006KT 9999 FEW008 BKN016 BKN020 13/12 Q1011
06:20
M
12 °C 10 km+ 2.500 ft 110° 110° 6 kt METAR EGLL 260520Z 11006KT 9999 SCT007 BKN025 BKN033 12/12 Q1011
05:50
V
12 °C 10 km+ 3.400 ft 110° 110° 7 kt METAR EGLL 260450Z 11007KT 9999 FEW006 BKN034 12/12 Q1011 TEMPO RA BKN008
05:20
V
12 °C 10 km+ 4.500 ft 110° 110° 6 kt METAR EGLL 260420Z 11006KT 9999 FEW006 BKN045 12/12 Q1011 TEMPO RA BKN008
04:50
V
12 °C 10 km+ 4.500 ft 100° 100° 6 kt METAR EGLL 260350Z 10006KT 9999 -RA BKN045 12/12 Q1011 TEMPO RA
04:20
V
12 °C 10 km+ 4.500 ft 100° 100° 5 kt METAR EGLL 260320Z 10005KT 9999 -RA BKN045 12/11 Q1011 RERA
03:50
V
12 °C 10 km+ - 090° 090° 5 kt METAR EGLL 260250Z 09005KT 9999 -RA NSC 12/11 Q1011 TEMPO RA
03:20
V
12 °C 10 km+ - 060° 060° 2 kt METAR EGLL 260220Z 06002KT 9999 -RA NSC 12/11 Q1012
02:50
V
12 °C 10 km+ - 060° 060° 4 kt METAR EGLL 260150Z AUTO 06004KT 9999 -RA //////TCU 12/11 Q1012
02:20
V
13 °C 10 km+ - 120° 120° 3 kt METAR EGLL 260120Z AUTO 12003KT 070V170 9999 -RA //////CB 13/11 Q1013
01:50
V
13 °C 10 km+ - 210° 210° 4 kt METAR EGLL 260050Z AUTO 21004KT 140V270 9999 -RA SCT036/// //////CB 13/11 Q1013 RERA TEMPO RA
01:20
M
13 °C 5 km 4.400 ft 210° 210° 7 kt METAR EGLL 260020Z 21007KT 160V240 5000 RA BKN044 13/11 Q1013 RERA
00:50
V
15 °C 10 km+ 4.900 ft 150° 150° 3 kt METAR EGLL 252350Z 15003KT 130V190 9999 -RA BKN049 15/09 Q1013 TEMPO RA
00:20
V
15 °C 10 km+ 4.900 ft 210° 210° 3 kt METAR EGLL 252320Z AUTO 21003KT 170V240 9999 BKN049/// //////TCU 15/09 Q1013 TEMPO RA

25 maggio 2024

Tempo Codice Tempo meteorologico Temp. Vista Base nuvolosa Vento METAR/SPECI
23:50
V
15 °C 10 km+ - 170° 170° 5 kt METAR EGLL 252250Z AUTO 17005KT 9999 NCD 15/09 Q1013 TEMPO RA
23:20
V
15 °C 10 km+ - 170° 170° 5 kt METAR EGLL 252220Z AUTO 17005KT 150V210 9999 NCD 15/09 Q1014 NOSIG
22:50
V
15 °C 10 km+ - 180° 180° 6 kt METAR EGLL 252150Z AUTO 18006KT 9999 NCD 15/09 Q1014
22:20
V
16 °C 10 km+ - 200° 200° 7 kt METAR EGLL 252120Z AUTO 20007KT 9999 NCD 16/09 Q1014
21:50
V
16 °C 10 km+ - 180° 180° 7 kt METAR EGLL 252050Z AUTO 18007KT 9999 NCD 16/09 Q1014
21:20
V
16 °C 10 km+ - 180° 180° 8 kt METAR EGLL 252020Z AUTO 18008KT 9999 NCD 16/09 Q1014
20:50
V
17 °C 10 km+ - 190° 190° 9 kt METAR EGLL 251950Z AUTO 19009KT 9999 NCD 17/08 Q1014 NOSIG
20:20
V
18 °C 10 km+ - 190° 190° 5 kt METAR EGLL 251920Z AUTO 19005KT 160V230 9999 NCD 18/07 Q1014 NOSIG
19:50
V
18 °C 10 km+ - 180° 180° 7 kt METAR EGLL 251850Z AUTO 18007KT 9999 NCD 18/06 Q1014
19:20
V
19 °C 10 km+ - 190° 190° 6 kt METAR EGLL 251820Z AUTO 19006KT 160V240 9999 NCD 19/05 Q1014 NOSIG
18:50
V
19 °C 10 km+ - 220° 220° 8 kt METAR EGLL 251750Z AUTO 22008KT 9999 NCD 19/04 Q1014
18:20
V
20 °C 10 km+ - 220° 220° 8 kt METAR EGLL 251720Z AUTO 22008KT 9999 NCD 20/05 Q1014 NOSIG
17:50
V
20 °C 10 km+ - 180° 180° 10 kt METAR EGLL 251650Z AUTO 18010KT 9999 NCD 20/06 Q1014 NOSIG
17:20
V
20 °C 10 km+ - 200° 200° 8 kt METAR EGLL 251620Z AUTO 20008KT 160V220 9999 NCD 20/06 Q1014
16:50
V
20 °C 10 km+ - 210° 210° 9 kt METAR EGLL 251550Z AUTO 21009KT 180V240 9999 NCD 20/06 Q1014 NOSIG
16:20
V
20 °C 10 km+ - 180° 180° 8 kt METAR EGLL 251520Z AUTO 18008KT 130V210 9999 NCD 20/07 Q1015
15:50
V
20 °C 10 km+ - 190° 190° 7 kt METAR EGLL 251450Z AUTO 19007KT 130V250 9999 NCD 20/07 Q1015
15:20
V
20 °C 10 km+ - 200° 200° 6 kt METAR EGLL 251420Z AUTO 20006KT 120V260 9999 NCD 20/08 Q1015
14:50
V
20 °C 10 km+ - 190° 190° 7 kt METAR EGLL 251350Z AUTO 19007KT 130V250 9999 NCD 20/08 Q1016
14:20
V
19 °C 10 km+ 4.900 ft 170° 170° 4 kt METAR EGLL 251320Z AUTO 17004KT 130V240 9999 BKN049 19/07 Q1016 NOSIG
13:50
V
19 °C 10 km+ - 170° 170° 7 kt METAR EGLL 251250Z AUTO 17007KT 100V210 9999 FEW048 19/08 Q1016
13:20
V
20 °C 10 km+ - 180° 180° 5 kt METAR EGLL 251220Z AUTO 18005KT 110V220 9999 SCT045 20/08 Q1016
12:50
V
18 °C 10 km+ 4.400 ft 120° 120° 5 kt METAR EGLL 251150Z AUTO 12005KT 070V150 9999 BKN044 18/08 Q1017 NOSIG
12:20
V
18 °C 10 km+ 4.200 ft 120° 120° 6 kt METAR EGLL 251120Z AUTO 12006KT 060V170 9999 BKN042 18/08 Q1017
11:50
V
19 °C 10 km+ 4.100 ft 130° 130° 6 kt METAR EGLL 251050Z AUTO 13006KT 070V200 9999 BKN041 19/09 Q1017 NOSIG
11:20
V
18 °C 10 km+ 3.600 ft 090° 090° 3 kt METAR EGLL 251020Z AUTO 09003KT 040V210 9999 BKN036 18/09 Q1017
10:50
V
17 °C 10 km+ 3.600 ft Var Var 2 kt METAR EGLL 250950Z AUTO VRB02KT 9999 BKN036 17/09 Q1017 NOSIG
10:20
V
17 °C 10 km+ 3.500 ft 090° 090° 3 kt METAR EGLL 250920Z AUTO 09003KT 350V170 9999 BKN035 17/09 Q1018 NOSIG
09:50
V
17 °C 10 km+ 4.000 ft 130° 130° 4 kt METAR EGLL 250850Z AUTO 13004KT 070V220 9999 BKN040 17/09 Q1018 NOSIG
09:20
V
16 °C 10 km+ - 120° 120° 4 kt METAR EGLL 250820Z AUTO 12004KT 9999 FEW039 16/08 Q1018
08:50
V
15 °C 10 km+ 3.800 ft 150° 150° 3 kt METAR EGLL 250750Z AUTO 15003KT 100V200 9999 BKN038 15/08 Q1018
08:20
V
14 °C 10 km+ 3.900 ft Var Var 2 kt METAR EGLL 250720Z AUTO VRB02KT 9999 BKN039 14/08 Q1018
07:50
V
13 °C 10 km+ 3.800 ft 060° 060° 2 kt METAR EGLL 250650Z AUTO 06002KT 9999 OVC038 13/09 Q1018
07:20
V
11 °C 10 km+ 3.900 ft 080° 080° 1 kt METAR EGLL 250620Z AUTO 08001KT 9999 OVC039 11/08 Q1018
06:50
V
11 °C 10 km+ - 080° 080° 2 kt METAR EGLL 250550Z AUTO 08002KT 9999 SCT038 11/08 Q1018
Segnala modifiche